createdAt,value
2023-11-18T00:01:14.954Z,6.20
2023-11-18T00:04:21.641Z,6.88
2023-11-18T00:07:25.425Z,6.65
2023-11-18T00:10:30.703Z,5.93
2023-11-18T00:13:34.713Z,6.10
2023-11-18T00:16:38.482Z,5.47
2023-11-18T00:19:43.168Z,6.55
2023-11-18T00:22:46.702Z,6.50
2023-11-18T00:25:53.813Z,7.15
2023-11-18T00:28:57.346Z,5.90
2023-11-18T00:32:01.307Z,4.47
2023-11-18T00:35:05.780Z,4.70
2023-11-18T00:38:09.837Z,4.78
2023-11-18T00:41:14.939Z,4.17
2023-11-18T00:44:19.210Z,4.18
2023-11-18T00:47:24.191Z,5.47
2023-11-18T00:50:28.047Z,4.75
2023-11-18T00:53:31.589Z,7.47
2023-11-18T00:56:37.003Z,5.13
2023-11-18T00:59:45.779Z,4.28
2023-11-18T01:02:51.100Z,4.93
2023-11-18T01:05:55.559Z,4.72
2023-11-18T01:08:59.805Z,3.60
2023-11-18T01:12:08.861Z,4.73
2023-11-18T01:15:13.789Z,4.47
2023-11-18T01:18:18.848Z,5.07
2023-11-18T01:21:24.110Z,4.28
2023-11-18T01:24:27.721Z,3.03
2023-11-18T01:27:34.386Z,3.78
2023-11-18T01:30:38.219Z,3.97
2023-11-18T01:33:42.934Z,4.77
2023-11-18T01:36:46.420Z,4.50
2023-11-18T01:39:51.521Z,4.22
2023-11-18T01:42:57.996Z,3.17
2023-11-18T01:46:08.442Z,4.43
2023-11-18T01:49:12.064Z,3.55
2023-11-18T01:52:16.804Z,3.05
2023-11-18T01:55:20.389Z,5.55
2023-11-18T01:58:27.010Z,5.28
2023-11-18T02:01:32.553Z,5.75
2023-11-18T02:04:36.580Z,5.57
2023-11-18T02:07:40.544Z,7.05
2023-11-18T02:11:03.956Z,6.10
2023-11-18T02:14:17.341Z,4.97
2023-11-18T02:17:25.499Z,6.05
2023-11-18T02:20:31.085Z,4.32
2023-11-18T02:23:35.180Z,2.47
2023-11-18T02:26:40.146Z,2.70
2023-11-18T02:29:49.935Z,2.75
2023-11-18T02:33:03.941Z,2.28
2023-11-18T02:36:17.326Z,2.07
2023-11-18T02:39:30.080Z,2.22
2023-11-18T02:42:38.879Z,2.35
2023-11-18T02:45:44.796Z,2.10
2023-11-18T02:48:48.696Z,2.55
2023-11-18T02:51:52.198Z,1.80
2023-11-18T02:54:56.018Z,1.60
2023-11-18T02:58:02.130Z,3.08
2023-11-18T03:01:10.886Z,2.30
2023-11-18T03:04:16.159Z,2.55
2023-11-18T03:07:20.019Z,1.90
2023-11-18T03:10:23.794Z,2.08
2023-11-18T03:13:29.395Z,2.47
2023-11-18T03:16:33.207Z,3.63
2023-11-18T03:19:38.193Z,2.63
2023-11-18T03:22:41.854Z,3.83
2023-11-18T03:25:47.739Z,3.05
2023-11-18T03:28:52.710Z,4.32
2023-11-18T03:31:56.886Z,3.22
2023-11-18T03:35:01.133Z,3.72
2023-11-18T03:38:05.688Z,2.77
2023-11-18T03:41:10.188Z,2.80
2023-11-18T03:44:15.811Z,4.93
2023-11-18T03:47:19.372Z,3.20
2023-11-18T03:50:23.142Z,3.60
2023-11-18T03:53:26.877Z,4.00
2023-11-18T03:56:30.968Z,2.92
2023-11-18T03:59:36.051Z,3.33
2023-11-18T04:02:41.293Z,2.53
2023-11-18T04:05:44.978Z,2.70
2023-11-18T04:08:48.864Z,3.43
2023-11-18T04:11:53.299Z,4.45
2023-11-18T04:14:58.483Z,3.42
2023-11-18T04:18:02.067Z,4.40
2023-11-18T04:21:07.774Z,2.40
2023-11-18T04:24:11.747Z,2.85
2023-11-18T04:27:15.582Z,3.28
2023-11-18T04:30:21.911Z,4.75
2023-11-18T04:33:26.669Z,3.38
2023-11-18T04:36:30.204Z,3.70
2023-11-18T04:39:34.693Z,2.70
2023-11-18T04:42:39.963Z,3.10
2023-11-18T04:45:45.435Z,2.22
2023-11-18T04:48:49.492Z,2.43
2023-11-18T04:51:53.485Z,3.10
2023-11-18T04:54:57.199Z,2.83
2023-11-18T04:58:01.013Z,2.63
2023-11-18T05:01:06.803Z,3.22
2023-11-18T05:04:10.713Z,3.40
2023-11-18T05:07:15.384Z,3.65
2023-11-18T05:10:19.847Z,3.30
2023-11-18T05:13:23.573Z,4.57
2023-11-18T05:16:28.855Z,4.15
2023-11-18T05:19:32.980Z,5.20
2023-11-18T05:22:37.742Z,4.63
2023-11-18T05:25:45.430Z,6.20
2023-11-18T05:28:50.070Z,6.57
2023-11-18T05:31:55.807Z,6.47
2023-11-18T05:34:59.606Z,4.18
2023-11-18T05:38:04.124Z,7.65
2023-11-18T05:41:17.670Z,5.73
2023-11-18T05:44:22.820Z,9.38
2023-11-18T05:47:28.485Z,7.90
2023-11-18T05:50:32.530Z,6.77
2023-11-18T05:53:37.235Z,12.60
2023-11-18T05:56:40.730Z,7.47
2023-11-18T05:59:44.849Z,9.15
2023-11-18T06:02:50.005Z,9.50
2023-11-18T06:05:55.365Z,11.20
2023-11-18T06:09:05.730Z,13.00
2023-11-18T06:12:10.070Z,14.63
2023-11-18T06:15:15.685Z,15.15
2023-11-18T06:18:21.339Z,12.32
2023-11-18T06:21:29.967Z,16.00
2023-11-18T06:24:33.868Z,16.25
2023-11-18T06:27:37.393Z,18.05
2023-11-18T06:30:41.198Z,16.15
2023-11-18T06:33:48.690Z,14.55
2023-11-18T06:36:52.962Z,13.77
2023-11-18T06:39:56.680Z,17.88
2023-11-18T06:43:03.390Z,13.80
2023-11-18T06:46:06.976Z,9.48
2023-11-18T06:49:16.617Z,10.25
2023-11-18T06:52:20.230Z,7.83
2023-11-18T06:55:24.050Z,6.22
2023-11-18T06:58:28.029Z,8.25
2023-11-18T07:01:32.313Z,6.07
2023-11-18T07:04:39.725Z,5.47
2023-11-18T07:07:44.472Z,5.93
2023-11-18T07:10:49.784Z,6.78
2023-11-18T07:13:57.498Z,8.53
2023-11-18T07:17:01.402Z,6.28
2023-11-18T07:20:08.278Z,6.65
2023-11-18T07:23:11.837Z,6.63
2023-11-18T07:26:16.166Z,7.78
2023-11-18T07:29:20.205Z,5.88
2023-11-18T07:32:23.990Z,6.90
2023-11-18T07:35:28.893Z,6.07
2023-11-18T07:38:33.325Z,7.28
2023-11-18T07:41:37.104Z,6.78
2023-11-18T07:44:41.172Z,7.97
2023-11-18T07:47:44.763Z,5.80
2023-11-18T07:50:50.233Z,5.97
2023-11-18T07:53:54.870Z,6.93
2023-11-18T07:56:59.369Z,7.93
2023-11-18T08:00:06.842Z,4.97
2023-11-18T08:03:17.265Z,6.50
2023-11-18T08:06:23.412Z,5.30
2023-11-18T08:09:27.557Z,5.57
2023-11-18T08:12:31.062Z,5.75
2023-11-18T08:15:35.563Z,3.63
2023-11-18T08:18:39.130Z,7.13
2023-11-18T08:21:44.243Z,4.82
2023-11-18T08:24:50.236Z,5.53
2023-11-18T08:27:54.408Z,4.47
2023-11-18T08:30:57.952Z,5.90
2023-11-18T08:34:01.649Z,5.43
2023-11-18T08:37:06.634Z,4.18
2023-11-18T08:40:15.842Z,4.70
2023-11-18T08:43:19.416Z,4.70
2023-11-18T08:46:23.190Z,3.90
2023-11-18T08:49:26.810Z,4.30
2023-11-18T08:52:31.973Z,4.43
2023-11-18T08:55:43.849Z,5.07
2023-11-18T08:58:50.553Z,5.00
2023-11-18T09:01:56.953Z,6.75
2023-11-18T09:05:01.170Z,4.88
2023-11-18T09:08:07.315Z,4.18
2023-11-18T09:11:16.031Z,3.80
2023-11-18T09:14:20.741Z,3.60
2023-11-18T09:17:24.714Z,3.43
2023-11-18T09:20:28.308Z,4.15
2023-11-18T09:23:35.596Z,2.80
2023-11-18T09:26:39.068Z,3.10
2023-11-18T09:29:42.784Z,3.15
2023-11-18T09:32:48.946Z,4.05
2023-11-18T09:35:53.317Z,3.65
2023-11-18T09:38:58.327Z,4.65
2023-11-18T09:42:03.785Z,4.18
2023-11-18T09:45:14.855Z,4.60
2023-11-18T09:48:26.326Z,4.47
2023-11-18T09:51:40.109Z,4.60
2023-11-18T09:54:57.589Z,4.97
2023-11-18T09:58:14.259Z,3.70
2023-11-18T10:01:22.578Z,3.90
2023-11-18T10:04:28.904Z,3.65
2023-11-18T10:07:37.384Z,5.40
2023-11-18T10:10:46.793Z,4.13
2023-11-18T10:13:51.044Z,3.97
2023-11-18T10:16:55.291Z,4.93
2023-11-18T10:20:01.543Z,2.87
2023-11-18T10:23:11.605Z,5.30
2023-11-18T10:26:17.062Z,3.85
2023-11-18T10:29:20.777Z,4.87
2023-11-18T10:32:28.556Z,5.05
2023-11-18T10:35:33.200Z,5.13
2023-11-18T10:38:44.798Z,4.63
2023-11-18T10:41:50.480Z,4.82
2023-11-18T10:44:58.986Z,4.45
2023-11-18T10:48:03.157Z,5.05
2023-11-18T10:51:08.429Z,3.43
2023-11-18T10:54:18.309Z,4.78
2023-11-18T10:57:25.318Z,6.18
2023-11-18T11:00:34.778Z,5.50
2023-11-18T11:03:56.828Z,5.60
2023-11-18T11:07:02.343Z,4.90
2023-11-18T11:10:07.160Z,4.22
2023-11-18T11:13:13.528Z,5.22
2023-11-18T11:16:21.646Z,5.50
2023-11-18T11:19:38.821Z,4.30
2023-11-18T11:23:09.487Z,4.40
2023-11-18T11:26:32.161Z,4.20
2023-11-18T11:29:48.186Z,6.50
2023-11-18T11:32:55.116Z,4.83
2023-11-18T11:36:05.042Z,6.18
2023-11-18T11:39:18.986Z,6.38
2023-11-18T11:42:26.284Z,5.47
2023-11-18T11:45:31.691Z,6.10
2023-11-18T11:48:37.413Z,5.65
2023-11-18T11:51:51.130Z,6.53
2023-11-18T11:55:07.777Z,6.23
2023-11-18T11:58:29.380Z,5.85
2023-11-18T12:01:39.287Z,5.38
2023-11-18T12:04:43.121Z,6.07
2023-11-18T12:07:47.640Z,6.47
2023-11-18T12:10:57.208Z,7.30
2023-11-18T12:14:14.211Z,6.38
2023-11-18T12:17:23.475Z,5.93
2023-11-18T12:20:45.695Z,6.78
2023-11-18T12:24:19.785Z,5.25
2023-11-18T12:27:52.617Z,5.80
2023-11-18T12:31:06.700Z,7.13
2023-11-18T12:34:13.622Z,5.93
2023-11-18T12:38:04.752Z,5.57
2023-11-18T12:41:12.731Z,5.22
2023-11-18T12:44:33.790Z,5.85
2023-11-18T12:47:43.797Z,5.03
2023-11-18T12:50:48.940Z,4.90
2023-11-18T12:53:54.809Z,7.53
2023-11-18T12:56:58.764Z,5.32
2023-11-18T13:00:02.779Z,4.53
2023-11-18T13:03:11.468Z,6.25
2023-11-18T13:06:17.347Z,5.75
2023-11-18T13:09:27.447Z,5.17
2023-11-18T13:12:31.810Z,6.70
2023-11-18T13:15:35.481Z,6.38
2023-11-18T13:18:50.363Z,5.97
2023-11-18T13:22:01.467Z,7.22
2023-11-18T13:25:06.337Z,6.95
2023-11-18T13:28:12.096Z,7.05
2023-11-18T13:31:17.668Z,6.77
2023-11-18T13:34:22.685Z,7.85
2023-11-18T13:37:28.139Z,5.82
2023-11-18T13:40:45.611Z,8.57
2023-11-18T13:43:49.480Z,6.60
2023-11-18T13:46:53.108Z,8.45
2023-11-18T13:49:59.552Z,7.53
2023-11-18T13:53:06.710Z,6.90
2023-11-18T13:56:11.210Z,7.05
2023-11-18T13:59:15.460Z,9.10
2023-11-18T14:02:19.960Z,8.17
2023-11-18T14:05:25.446Z,6.80
2023-11-18T14:08:30.815Z,10.05
2023-11-18T14:11:35.617Z,8.80
2023-11-18T14:14:39.762Z,10.48
2023-11-18T14:17:46.111Z,10.77
2023-11-18T14:20:51.453Z,9.25
2023-11-18T14:24:01.144Z,9.55
2023-11-18T14:27:06.147Z,8.45
2023-11-18T14:30:11.556Z,8.60
2023-11-18T14:33:15.408Z,7.40
2023-11-18T14:36:20.101Z,8.63
2023-11-18T14:39:26.824Z,8.80
2023-11-18T14:42:30.312Z,8.70
2023-11-18T14:45:34.056Z,11.32
2023-11-18T14:48:37.504Z,10.50
2023-11-18T14:51:42.224Z,8.57
2023-11-18T14:54:47.572Z,9.65
2023-11-18T14:57:51.641Z,10.90
2023-11-18T15:00:58.021Z,11.57
2023-11-18T15:04:05.401Z,11.23
2023-11-18T15:07:09.416Z,10.05
2023-11-18T15:10:15.321Z,12.82
2023-11-18T15:13:19.383Z,12.40
2023-11-18T15:16:23.885Z,14.90
2023-11-18T15:19:28.908Z,12.02
2023-11-18T15:22:32.689Z,12.18
2023-11-18T15:25:37.691Z,9.10
2023-11-18T15:28:42.080Z,10.67
2023-11-18T15:31:46.493Z,10.55
2023-11-18T15:34:50.239Z,12.13
2023-11-18T15:37:53.982Z,12.85
2023-11-18T15:40:59.732Z,9.93
2023-11-18T15:44:04.607Z,13.37
2023-11-18T15:47:10.920Z,11.77
2023-11-18T15:50:17.470Z,13.77
2023-11-18T15:53:22.546Z,13.10
2023-11-18T15:56:27.459Z,12.20
2023-11-18T15:59:31.955Z,14.27
2023-11-18T16:02:35.512Z,10.88
2023-11-18T16:05:39.448Z,10.47
2023-11-18T16:08:44.290Z,10.75
2023-11-18T16:11:50.705Z,15.35
2023-11-18T16:14:54.510Z,11.77
2023-11-18T16:18:01.731Z,12.82
2023-11-18T16:21:06.549Z,12.57
2023-11-18T16:24:11.181Z,12.98
2023-11-18T16:27:16.979Z,13.85
2023-11-18T16:30:25.834Z,16.63
2023-11-18T16:33:31.101Z,14.93
2023-11-18T16:36:35.037Z,16.27
2023-11-18T16:39:38.523Z,14.02
2023-11-18T16:42:43.834Z,15.60
2023-11-18T16:45:49.369Z,15.87
2023-11-18T16:48:55.490Z,15.73
2023-11-18T16:52:00.771Z,14.27
2023-11-18T16:55:07.543Z,13.30
2023-11-18T16:58:12.916Z,12.30
2023-11-18T17:01:18.035Z,16.00
2023-11-18T17:04:21.668Z,16.35
2023-11-18T17:07:27.733Z,12.40
2023-11-18T17:10:31.560Z,12.75
2023-11-18T17:13:37.498Z,12.93
2023-11-18T17:16:42.089Z,13.30
2023-11-18T17:19:45.971Z,14.73
2023-11-18T17:22:50.159Z,15.88
2023-11-18T17:25:56.685Z,13.85
2023-11-18T17:29:01.907Z,14.13
2023-11-18T17:32:06.890Z,14.73
2023-11-18T17:35:14.315Z,13.38
2023-11-18T17:38:18.255Z,17.30
2023-11-18T17:41:22.964Z,14.48
2023-11-18T17:44:28.852Z,11.98
2023-11-18T17:47:35.758Z,13.83
2023-11-18T17:50:39.678Z,10.70
2023-11-18T17:53:43.591Z,10.10
2023-11-18T17:56:47.599Z,14.35
2023-11-18T17:59:54.087Z,13.32
2023-11-18T18:02:58.438Z,12.73
2023-11-18T18:06:02.367Z,12.93
2023-11-18T18:09:16.933Z,12.90
2023-11-18T18:12:20.395Z,10.20
2023-11-18T18:15:27.564Z,10.70
2023-11-18T18:18:31.219Z,9.77
2023-11-18T18:21:34.926Z,19.35
2023-11-18T18:24:38.333Z,9.55
2023-11-18T18:27:42.376Z,9.07
2023-11-18T18:30:47.297Z,29.30
2023-11-18T18:33:52.264Z,23.98
2023-11-18T18:36:55.866Z,24.88
2023-11-18T18:40:00.161Z,10.00
2023-11-18T18:43:04.317Z,10.57
2023-11-18T18:46:09.716Z,9.02
2023-11-18T18:49:13.334Z,7.90
2023-11-18T18:52:17.112Z,10.48
2023-11-18T18:55:20.644Z,10.30
2023-11-18T18:58:24.487Z,10.57
2023-11-18T19:01:29.655Z,8.48
2023-11-18T19:07:37.451Z,7.35
2023-11-18T19:10:41.170Z,9.27
2023-11-18T19:13:44.695Z,8.20
2023-11-18T19:16:49.907Z,7.95
2023-11-18T19:19:53.476Z,8.30
2023-11-18T19:22:57.291Z,6.65
2023-11-18T19:26:00.778Z,10.00
2023-11-18T19:29:07.073Z,7.85
2023-11-18T19:32:12.110Z,8.82
2023-11-18T19:35:16.750Z,9.48
2023-11-18T19:38:20.400Z,7.82
2023-11-18T19:41:24.293Z,6.97
2023-11-18T19:44:27.866Z,10.70
2023-11-18T19:47:33.323Z,8.32
2023-11-18T19:50:36.956Z,13.13
2023-11-18T19:53:40.870Z,7.93
2023-11-18T19:56:44.740Z,10.10
2023-11-18T19:59:50.132Z,12.10
2023-11-18T20:02:55.267Z,9.63
2023-11-18T20:05:59.173Z,8.95
2023-11-18T20:09:03.994Z,10.13
2023-11-18T20:12:09.226Z,7.77
2023-11-18T20:15:13.400Z,8.70
2023-11-18T20:18:19.923Z,8.68
2023-11-18T20:21:23.769Z,9.33
2023-11-18T20:24:27.574Z,8.98
2023-11-18T20:27:31.032Z,9.63
2023-11-18T20:30:34.891Z,8.77
2023-11-18T20:33:43.228Z,7.90
2023-11-18T20:36:47.847Z,9.38
2023-11-18T20:39:51.952Z,9.52
2023-11-18T20:42:57.764Z,10.17
2023-11-18T20:46:01.179Z,9.93
2023-11-18T20:49:06.520Z,11.88
2023-11-18T20:52:10.726Z,9.63
2023-11-18T20:55:14.967Z,10.38
2023-11-18T20:58:18.516Z,9.80
2023-11-18T21:01:22.298Z,10.52
2023-11-18T21:04:28.141Z,10.77
2023-11-18T21:07:32.135Z,9.82
2023-11-18T21:10:36.450Z,9.90
2023-11-18T21:13:40.687Z,10.40
2023-11-18T21:16:47.010Z,11.88
2023-11-18T21:19:53.475Z,7.82
2023-11-18T21:22:57.319Z,9.03
2023-11-18T21:26:01.426Z,10.27
2023-11-18T21:29:05.496Z,9.15
2023-11-18T21:32:09.449Z,9.05
2023-11-18T21:35:16.241Z,9.02
2023-11-18T21:38:21.155Z,9.75
2023-11-18T21:41:25.085Z,10.35
2023-11-18T21:44:29.093Z,11.47
2023-11-18T21:47:33.425Z,8.88
2023-11-18T21:50:41.594Z,10.23
2023-11-18T21:53:45.354Z,10.47
2023-11-18T21:56:49.355Z,7.77
2023-11-18T21:59:53.571Z,7.32
2023-11-18T22:02:58.206Z,10.63
2023-11-18T22:06:03.331Z,10.63
2023-11-18T22:09:08.502Z,10.90
2023-11-18T22:12:11.983Z,11.02
2023-11-18T22:15:18.041Z,12.27
2023-11-18T22:18:23.770Z,12.05
2023-11-18T22:21:29.379Z,10.50
2023-11-18T22:24:32.970Z,11.37
2023-11-18T22:27:41.043Z,8.50
2023-11-18T22:30:46.496Z,8.27
2023-11-18T22:33:50.518Z,9.07
2023-11-18T22:36:56.524Z,9.98
2023-11-18T22:40:00.476Z,12.85
2023-11-18T22:43:04.193Z,11.57
2023-11-18T22:46:12.039Z,10.47
2023-11-18T22:49:15.893Z,8.30
2023-11-18T22:52:22.154Z,11.07
2023-11-18T22:55:26.342Z,10.33
2023-11-18T22:58:30.237Z,11.50
2023-11-18T23:01:37.832Z,11.70
2023-11-18T23:04:41.635Z,10.77
2023-11-18T23:07:47.408Z,9.70
2023-11-18T23:10:52.345Z,11.52
2023-11-18T23:13:56.458Z,9.57
2023-11-18T23:17:08.253Z,10.23
2023-11-18T23:20:13.444Z,10.82
2023-11-18T23:23:19.435Z,9.73
2023-11-18T23:26:23.081Z,11.13
2023-11-18T23:29:27.032Z,9.23
2023-11-18T23:32:31.561Z,13.27
2023-11-18T23:35:35.438Z,8.50
2023-11-18T23:38:40.558Z,9.75
2023-11-18T23:41:44.588Z,12.95
2023-11-18T23:44:48.287Z,9.45
2023-11-18T23:47:52.967Z,9.13
2023-11-18T23:50:56.560Z,11.05
2023-11-18T23:54:01.748Z,9.35
2023-11-18T23:57:06.104Z,9.70
